Time;durP1;ratioP1;P1;durP2;ratioP2;P2;SDS_P1;SDS_P2;PMS_P1;PMS_P2;Temp;Humidity;BMP_temperature;BMP_pressure;BME280_temperature;BME280_humidity;BME280_pressure;Samples;Min_cycle;Max_cycle;Signal;HPM_P1;HPM_P2
2023/08/14 00:00:21;;;;;;;14.75;2.28;;;;;;;17.71;99.63;100680.28;4897714;29;20521;-83
2023/08/14 00:03:25;;;;;;;9.68;2.20;;;;;;;17.73;99.47;100687.16;4897856;29;20108;-82
2023/08/14 00:06:28;;;;;;;15.25;2.35;;;;;;;17.67;100.00;100690.28;4898006;29;20081;-83
2023/08/14 00:09:32;;;;;;;10.52;2.28;;;;;;;17.73;100.00;100686.31;4897539;29;20565;-83
2023/08/14 00:12:35;;;;;;;9.55;2.60;;;;;;;17.73;100.00;100679.22;4897277;29;20124;-83
2023/08/14 00:15:42;;;;;;;10.23;1.98;;;;;;;17.73;100.00;100681.03;4917539;29;20132;-83
2023/08/14 00:18:47;;;;;;;7.10;2.03;;;;;;;17.67;100.00;100677.06;4920162;29;20051;-82
2023/08/14 00:21:53;;;;;;;19.48;2.63;;;;;;;17.74;100.00;100670.34;4920176;29;20046;-82
2023/08/14 00:24:57;;;;;;;13.63;2.60;;;;;;;17.88;99.56;100677.19;4920107;29;20074;-82
2023/08/14 00:28:00;;;;;;;15.45;2.38;;;;;;;17.94;98.99;100681.16;4919978;29;20055;-84
2023/08/14 00:31:07;;;;;;;17.67;2.85;;;;;;;17.80;99.54;100680.44;4919066;29;20494;-84
2023/08/14 00:34:35;;;;;;;6.75;2.60;;;;;;;17.61;100.00;100682.84;4919609;29;20091;-84
2023/08/14 00:37:46;;;;;;;12.38;2.17;;;;;;;17.62;100.00;100680.09;4919718;29;20166;-83
2023/08/14 00:40:52;;;;;;;13.32;2.95;;;;;;;17.66;100.00;100675.38;4919689;29;20109;-83
2023/08/14 00:43:56;;;;;;;14.65;2.30;;;;;;;17.56;100.00;100671.81;4918846;29;20135;-83
2023/08/14 00:47:04;;;;;;;11.20;2.55;;;;;;;17.57;100.00;100668.19;4930124;29;20063;-85
2023/08/14 00:50:08;;;;;;;6.43;2.55;;;;;;;17.49;100.00;100662.69;4919062;29;20669;-83
2023/08/14 00:53:23;;;;;;;13.05;2.40;;;;;;;17.39;100.00;100658.13;4919539;29;20054;-82
2023/08/14 00:56:29;;;;;;;14.05;2.40;;;;;;;17.42;100.00;100660.53;4919791;29;20067;-83
2023/08/14 00:59:37;;;;;;;14.35;2.72;;;;;;;17.55;100.00;100657.75;4918789;29;20105;-83
2023/08/14 01:02:43;;;;;;;7.03;1.75;;;;;;;17.60;99.75;100660.00;4919651;29;20509;-83
2023/08/14 01:05:51;;;;;;;13.95;1.95;;;;;;;17.54;99.63;100660.50;4918362;29;20039;-83
2023/08/14 01:08:56;;;;;;;11.57;2.20;;;;;;;17.45;99.86;100662.06;4919303;29;20546;-83
2023/08/14 01:12:42;;;;;;;8.98;2.00;;;;;;;17.35;100.00;100659.28;4919122;29;20047;-83
2023/08/14 01:15:53;;;;;;;14.25;2.63;;;;;;;17.30;100.00;100652.72;4907522;29;20108;-83
2023/08/14 01:18:58;;;;;;;11.07;2.30;;;;;;;17.22;100.00;100655.94;4918389;29;20150;-82
2023/08/14 01:22:28;;;;;;;13.95;3.00;;;;;;;17.19;100.00;100656.16;4907843;29;20422;-83
2023/08/14 01:25:39;;;;;;;14.40;2.20;;;;;;;17.13;100.00;100656.66;4918078;29;20087;-83
2023/08/14 01:28:44;;;;;;;9.88;2.05;;;;;;;17.17;100.00;100648.38;4918337;29;20127;-82
2023/08/14 01:31:51;;;;;;;14.43;2.65;;;;;;;17.12;100.00;100639.13;4907940;29;20103;-83
2023/08/14 01:34:55;;;;;;;10.95;1.95;;;;;;;17.05;100.00;100649.31;4918217;29;20064;-81
2023/08/14 01:38:01;;;;;;;9.85;2.03;;;;;;;17.12;100.00;100647.06;4918618;29;20131;-81
2023/08/14 01:41:31;;;;;;;8.65;1.98;;;;;;;17.30;100.00;100645.63;4918652;29;20054;-82
2023/08/14 01:44:41;;;;;;;10.45;2.22;;;;;;;17.32;99.54;100643.69;4917651;29;20124;-82
2023/08/14 01:47:46;;;;;;;10.98;1.90;;;;;;;17.25;99.81;100642.47;4918668;29;20107;-82
2023/08/14 01:50:52;;;;;;;10.77;1.95;;;;;;;17.18;100.00;100644.78;4918782;29;20047;-81
2023/08/14 01:53:55;;;;;;;12.55;2.70;;;;;;;17.13;100.00;100646.94;4928512;29;20054;-81
2023/08/14 01:57:06;;;;;;;5.72;2.33;;;;;;;17.07;100.00;100639.50;4928821;29;20058;-81
2023/08/14 02:00:10;;;;;;;10.95;1.73;;;;;;;17.16;100.00;100641.41;4917555;29;20099;-81
2023/08/14 02:03:16;;;;;;;8.50;2.20;;;;;;;17.20;100.00;100634.09;4917712;29;20464;-80
2023/08/14 02:06:21;;;;;;;11.13;2.20;;;;;;;17.14;100.00;100632.75;4918114;29;20509;-80
2023/08/14 02:09:24;;;;;;;9.35;1.98;;;;;;;17.24;100.00;100627.59;4917407;29;20047;-81
2023/08/14 02:12:30;;;;;;;8.65;2.30;;;;;;;17.36;100.00;100616.06;4917067;29;20116;-81
2023/08/14 02:15:34;;;;;;;15.40;2.03;;;;;;;17.25;100.00;100616.06;4918053;29;20071;-81
2023/08/14 02:18:37;;;;;;;11.98;2.30;;;;;;;17.16;100.00;100608.84;4917922;29;20051;-82
2023/08/14 02:21:42;;;;;;;12.15;1.92;;;;;;;17.13;100.00;100609.09;4918120;29;20051;-82
2023/08/14 02:24:45;;;;;;;9.77;2.45;;;;;;;17.22;100.00;100600.44;4898900;29;20104;-82
2023/08/14 02:27:49;;;;;;;20.17;3.72;;;;;;;17.29;100.00;100604.28;4898008;29;20051;-82
2023/08/14 02:30:52;;;;;;;18.30;3.53;;;;;;;17.28;100.00;100610.53;4898883;29;20047;-82
2023/08/14 02:33:58;;;;;;;17.52;3.50;;;;;;;17.36;100.00;100610.78;4899120;29;20436;-82
2023/08/14 02:37:02;;;;;;;15.15;3.17;;;;;;;17.43;100.00;100614.59;4898144;29;20043;-82
2023/08/14 02:40:08;;;;;;;13.75;3.22;;;;;;;17.38;100.00;100615.94;4907939;29;20081;-81
2023/08/14 02:43:13;;;;;;;14.95;2.80;;;;;;;17.26;100.00;100615.13;4897997;29;20073;-83
2023/08/14 02:46:16;;;;;;;15.27;2.70;;;;;;;17.17;100.00;100610.56;4897847;29;20088;-83
2023/08/14 02:49:20;;;;;;;10.15;3.03;;;;;;;17.06;100.00;100602.63;4908760;29;20056;-82
2023/08/14 02:52:24;;;;;;;18.33;3.35;;;;;;;17.08;100.00;100595.41;4898747;29;20055;-81
2023/08/14 02:55:34;;;;;;;15.55;3.20;;;;;;;17.25;100.00;100592.28;4898436;29;20114;-81
2023/08/14 02:58:43;;;;;;;16.50;3.38;;;;;;;17.28;100.00;100584.09;4897787;29;20082;-80
2023/08/14 03:01:46;;;;;;;15.48;3.60;;;;;;;17.29;100.00;100577.00;4897698;29;20075;-81
2023/08/14 03:04:50;;;;;;;19.10;3.22;;;;;;;17.32;100.00;100582.88;4897589;29;20411;-82
2023/08/14 03:07:54;;;;;;;11.82;3.22;;;;;;;17.34;100.00;100583.63;4898016;29;20052;-81
2023/08/14 03:10:57;;;;;;;13.32;3.42;;;;;;;17.39;100.00;100576.19;4897572;29;20175;-79
2023/08/14 03:14:00;;;;;;;18.83;3.10;;;;;;;17.46;100.00;100578.34;4907769;29;20079;-80
2023/08/14 03:17:05;;;;;;;15.35;3.85;;;;;;;17.32;100.00;100572.31;4905428;29;20086;-82
2023/08/14 03:20:09;;;;;;;9.45;2.65;;;;;;;17.16;100.00;100582.44;4904992;29;20098;-82
2023/08/14 03:23:13;;;;;;;14.63;3.65;;;;;;;17.08;100.00;100579.56;4915819;29;20072;-81
2023/08/14 03:26:17;;;;;;;13.35;3.17;;;;;;;17.07;100.00;100580.50;4916895;29;20099;-81
2023/08/14 03:29:24;;;;;;;22.65;3.75;;;;;;;17.14;100.00;100581.72;4916727;29;20055;-81
2023/08/14 03:32:27;;;;;;;19.25;4.43;;;;;;;17.18;100.00;100570.78;4904933;29;20070;-81
2023/08/14 03:35:32;;;;;;;14.57;3.50;;;;;;;17.24;100.00;100572.09;4915829;29;20047;-82
2023/08/14 03:38:50;;;;;;;21.52;3.67;;;;;;;17.21;100.00;100564.41;4906749;29;20051;-83
2023/08/14 03:42:53;;;;;;;;;;;;;;;;;;;;;
2023/08/14 03:46:00;;;;;;;16.83;3.67;;;;;;;17.08;100.00;100563.72;4904973;29;20091;-84
2023/08/14 03:49:05;;;;;;;12.75;3.28;;;;;;;17.07;100.00;100567.28;4905105;29;20409;-84
2023/08/14 03:52:12;;;;;;;18.05;2.58;;;;;;;17.05;100.00;100559.50;4915651;29;20156;-85
2023/08/14 03:55:16;;;;;;;9.10;2.40;;;;;;;17.06;100.00;100570.91;4916770;29;20513;-85
2023/08/14 03:58:20;;;;;;;10.43;2.60;;;;;;;16.92;100.00;100575.47;4915708;29;20047;-84
2023/08/14 04:01:23;;;;;;;17.02;3.67;;;;;;;16.89;100.00;100570.44;4905026;29;20059;-84
2023/08/14 04:04:27;;;;;;;9.57;2.90;;;;;;;16.89;100.00;100566.97;4916494;29;20087;-83
2023/08/14 04:07:31;;;;;;;28.48;5.25;;;;;;;16.91;100.00;100559.75;4916075;29;20467;-83
2023/08/14 04:10:34;;;;;;;14.48;3.72;;;;;;;16.99;100.00;100551.22;4893796;29;20055;-83
2023/08/14 04:14:09;;;;;;;16.42;3.25;;;;;;;16.95;100.00;100559.41;4915552;29;20426;-83
2023/08/14 04:17:13;;;;;;;16.67;3.22;;;;;;;16.91;100.00;100568.53;4914564;29;20071;-83
2023/08/14 04:20:16;;;;;;;14.00;3.70;;;;;;;16.88;100.00;100563.47;4914420;29;20466;-82
2023/08/14 04:23:24;;;;;;;14.13;3.10;;;;;;;16.90;100.00;100560.72;4913244;29;20430;-78
2023/08/14 04:26:28;;;;;;;14.85;3.65;;;;;;;17.02;100.00;100558.91;4914443;29;20116;-77
2023/08/14 04:29:33;;;;;;;12.23;2.83;;;;;;;16.96;100.00;100562.88;4914265;29;20074;-75
2023/08/14 04:32:37;;;;;;;13.93;2.60;;;;;;;16.96;100.00;100560.22;4902232;29;20151;-78
2023/08/14 04:35:40;;;;;;;8.07;2.92;;;;;;;16.93;100.00;100565.75;4902595;29;20072;-78
2023/08/14 04:38:47;;;;;;;13.00;3.22;;;;;;;16.94;100.00;100552.44;4902578;29;20047;-77
2023/08/14 04:41:51;;;;;;;9.10;2.40;;;;;;;17.04;100.00;100564.91;4915089;29;20079;-78
2023/08/14 04:44:55;;;;;;;6.88;3.13;;;;;;;17.02;100.00;100561.56;4902337;29;20074;-78
2023/08/14 04:47:58;;;;;;;11.23;2.67;;;;;;;17.03;100.00;100552.66;4902202;29;20055;-79
2023/08/14 04:51:04;;;;;;;14.38;2.83;;;;;;;17.04;100.00;100570.19;4901922;29;20199;-79
2023/08/14 04:54:54;;;;;;;13.02;2.40;;;;;;;17.03;100.00;100571.16;4902192;29;20055;-79
2023/08/14 04:58:01;;;;;;;7.82;2.70;;;;;;;17.04;100.00;100572.81;4901624;29;20145;-79
2023/08/14 05:01:05;;;;;;;12.27;2.55;;;;;;;17.00;100.00;100566.94;4901304;29;20139;-79
2023/08/14 05:04:08;;;;;;;12.32;3.00;;;;;;;17.04;100.00;100562.25;4916064;29;20215;-80
2023/08/14 05:07:15;;;;;;;11.60;2.00;;;;;;;17.08;100.00;100569.00;4903747;29;20154;-79
2023/08/14 05:10:22;;;;;;;11.80;2.10;;;;;;;17.15;100.00;100571.03;4906095;29;20108;-80
2023/08/14 05:13:26;;;;;;;8.02;2.13;;;;;;;17.25;100.00;100573.78;4917205;29;20068;-81
2023/08/14 05:16:29;;;;;;;8.40;2.20;;;;;;;17.18;100.00;100580.53;4905868;29;20058;-81
2023/08/14 05:19:35;;;;;;;12.93;2.20;;;;;;;17.29;100.00;100572.56;4904377;29;20461;-81
2023/08/14 05:22:38;;;;;;;7.07;1.90;;;;;;;17.40;100.00;100575.19;4904808;29;20573;-79
2023/08/14 05:25:45;;;;;;;10.45;2.40;;;;;;;17.36;100.00;100562.38;4916732;29;20115;-78
2023/08/14 05:28:48;;;;;;;10.65;2.58;;;;;;;17.39;100.00;100551.56;4915830;29;20059;-81
2023/08/14 05:31:53;;;;;;;12.25;2.15;;;;;;;17.38;100.00;100563.91;4915848;29;20107;-81
2023/08/14 05:34:56;;;;;;;7.15;2.13;;;;;;;17.36;100.00;100568.50;4916210;29;20055;-81
2023/08/14 05:37:59;;;;;;;11.65;2.85;;;;;;;17.37;100.00;100572.81;4916087;29;20133;-80
2023/08/14 05:41:03;;;;;;;6.38;2.10;;;;;;;17.46;100.00;100586.25;4915586;29;20082;-79
2023/08/14 05:44:06;;;;;;;4.78;1.65;;;;;;;17.49;100.00;100568.34;4916922;29;20091;-80
2023/08/14 05:47:12;;;;;;;5.03;1.65;;;;;;;17.54;100.00;100554.75;4916594;29;20653;-80
2023/08/14 05:50:16;;;;;;;5.22;1.83;;;;;;;17.64;100.00;100558.31;4904926;29;20091;-80
2023/08/14 05:53:22;;;;;;;4.93;1.80;;;;;;;17.66;100.00;100569.63;4904629;29;20134;-80
2023/08/14 05:56:25;;;;;;;5.78;1.45;;;;;;;17.70;100.00;100571.03;4916818;29;20039;-81
2023/08/14 05:59:30;;;;;;;6.75;2.65;;;;;;;17.84;100.00;100578.72;4916481;29;20047;-81
2023/08/14 06:02:33;;;;;;;4.72;1.73;;;;;;;17.96;99.26;100565.44;4916703;29;20533;-80
2023/08/14 06:05:36;;;;;;;8.57;1.90;;;;;;;18.07;98.70;100562.75;4916431;29;20062;-81
2023/08/14 06:08:45;;;;;;;6.03;1.50;;;;;;;18.11;99.55;100572.94;4916583;29;20131;-81
2023/08/14 06:11:51;;;;;;;6.97;1.80;;;;;;;18.07;99.31;100571.53;4916291;29;20068;-81
2023/08/14 06:14:54;;;;;;;9.75;2.70;;;;;;;18.09;99.01;100563.47;4903875;29;20414;-80
2023/08/14 06:17:58;;;;;;;10.38;2.70;;;;;;;18.18;98.60;100565.34;4915971;29;20478;-82
2023/08/14 06:21:01;;;;;;;7.30;1.60;;;;;;;18.16;98.80;100556.72;4916402;29;20067;-82
2023/08/14 06:24:42;;;;;;;7.45;2.00;;;;;;;18.17;100.00;100565.50;4916568;29;20480;-82
2023/08/14 06:27:57;;;;;;;6.97;2.22;;;;;;;18.20;100.00;100571.34;4916508;29;20215;-80
2023/08/14 06:31:02;;;;;;;8.95;1.98;;;;;;;18.26;99.65;100554.97;4916274;29;20131;-82
2023/08/14 06:34:06;;;;;;;6.45;1.70;;;;;;;18.30;99.19;100548.44;4916443;29;20043;-81
2023/08/14 06:37:12;;;;;;;6.65;2.22;;;;;;;18.36;99.01;100547.09;4914465;29;20533;-78
2023/08/14 06:40:15;;;;;;;5.03;2.17;;;;;;;18.50;99.42;100549.38;4914381;29;20055;-76
2023/08/14 06:43:19;;;;;;;10.35;2.08;;;;;;;18.62;98.66;100555.47;4914169;29;20505;-74
2023/08/14 06:46:23;;;;;;;7.72;1.83;;;;;;;18.66;98.25;100551.56;4913853;29;20083;-76
2023/08/14 06:49:29;;;;;;;9.35;2.15;;;;;;;18.76;97.84;100549.00;4913919;29;20051;-73
2023/08/14 06:52:33;;;;;;;6.88;2.05;;;;;;;18.84;96.70;100545.69;4915248;29;20070;-74
2023/08/14 06:55:36;;;;;;;10.10;3.22;;;;;;;18.87;96.23;100550.75;4915389;29;20168;-74
2023/08/14 06:58:40;;;;;;;5.80;1.92;;;;;;;18.93;96.00;100548.38;4915208;29;20099;-73
2023/08/14 07:01:43;;;;;;;10.40;2.50;;;;;;;18.93;96.18;100534.31;4915321;29;20046;-72
2023/08/14 07:04:46;;;;;;;7.65;2.58;;;;;;;18.96;95.97;100536.69;4914953;29;20098;-75
2023/08/14 07:07:57;;;;;;;9.50;2.42;;;;;;;19.01;96.17;100529.16;4914969;29;20525;-76
2023/08/14 07:11:00;;;;;;;8.52;2.85;;;;;;;19.02;97.31;100517.59;4914816;29;20598;-75
2023/08/14 07:14:03;;;;;;;4.15;1.92;;;;;;;19.08;97.27;100511.78;4914828;29;20116;-72
2023/08/14 07:17:06;;;;;;;5.63;2.30;;;;;;;19.14;96.87;100510.38;4914927;29;20102;-75
2023/08/14 07:20:10;;;;;;;5.93;1.98;;;;;;;19.20;96.11;100513.31;4915087;29;20608;-74
2023/08/14 07:23:22;;;;;;;10.63;2.47;;;;;;;19.29;96.03;100499.25;4915089;29;20055;-75
2023/08/14 07:26:25;;;;;;;6.22;2.33;;;;;;;19.39;95.99;100493.94;4914213;29;20039;-75
2023/08/14 07:29:29;;;;;;;6.18;2.00;;;;;;;19.48;95.78;100497.59;4914926;29;20063;-77
2023/08/14 07:32:35;;;;;;;6.82;2.15;;;;;;;19.59;94.09;100507.22;4915186;29;20573;-76
2023/08/14 07:35:38;;;;;;;10.38;2.30;;;;;;;19.65;93.49;100504.06;4915136;29;20505;-76
2023/08/14 07:38:42;;;;;;;10.00;1.98;;;;;;;19.77;92.99;100497.63;4914820;29;20458;-76
2023/08/14 07:41:45;;;;;;;7.82;2.38;;;;;;;19.85;92.19;100494.28;4914691;29;20062;-77
2023/08/14 07:44:48;;;;;;;9.15;1.98;;;;;;;19.91;91.06;100493.69;4913138;29;20363;-77
2023/08/14 07:47:52;;;;;;;7.97;2.20;;;;;;;19.96;90.92;100510.06;4914212;29;20540;-76
2023/08/14 07:50:57;;;;;;;8.98;2.40;;;;;;;19.98;89.21;100505.44;4903296;29;20059;-77
2023/08/14 07:54:04;;;;;;;13.18;2.28;;;;;;;20.07;88.81;100509.91;4914687;29;20049;-78
2023/08/14 07:57:07;;;;;;;14.00;2.72;;;;;;;20.15;88.56;100515.34;4914695;29;20131;-77
2023/08/14 08:00:13;;;;;;;12.07;2.70;;;;;;;20.20;88.98;100505.13;4914363;29;20051;-78
2023/08/14 08:03:17;;;;;;;5.25;1.90;;;;;;;20.29;87.46;100513.22;4902771;29;20078;-77
2023/08/14 08:06:20;;;;;;;7.15;2.20;;;;;;;20.34;87.77;100503.00;4914716;29;20054;-80
2023/08/14 08:09:23;;;;;;;12.35;2.50;;;;;;;20.50;86.67;100503.22;4914439;29;20533;-73
2023/08/14 08:12:27;;;;;;;6.78;2.50;;;;;;;20.60;86.61;100514.69;4947802;28;20114;-74
2023/08/14 08:15:32;;;;;;;10.57;2.17;;;;;;;20.70;86.53;100517.31;4952486;28;20441;-75
2023/08/14 08:18:36;;;;;;;4.85;2.00;;;;;;;20.82;86.62;100520.63;4952643;28;20051;-78
2023/08/14 08:21:39;;;;;;;6.88;2.88;;;;;;;20.97;86.20;100508.53;4952585;28;20050;-74
2023/08/14 08:24:43;;;;;;;6.35;2.35;;;;;;;21.07;84.17;100509.31;4952449;28;20098;-74
2023/08/14 08:27:47;;;;;;;10.68;2.67;;;;;;;21.24;83.07;100514.81;4952283;28;20050;-73
2023/08/14 08:30:50;;;;;;;8.98;2.72;;;;;;;21.37;83.35;100523.28;4952540;28;20042;-73
2023/08/14 08:33:59;;;;;;;8.68;2.80;;;;;;;21.50;81.82;100531.72;4952320;28;20122;-77
2023/08/14 08:37:03;;;;;;;7.80;2.00;;;;;;;21.54;81.04;100516.34;4952520;28;20128;-78
2023/08/14 08:40:12;;;;;;;8.00;2.28;;;;;;;21.61;81.34;100517.41;4956269;28;20058;-79
2023/08/14 08:43:19;;;;;;;11.50;2.45;;;;;;;21.70;80.17;100521.81;4956241;28;20066;-76
2023/08/14 08:46:23;;;;;;;6.55;1.90;;;;;;;21.83;79.77;100516.09;4956322;28;20050;-77
2023/08/14 08:49:28;;;;;;;6.95;2.38;;;;;;;21.91;79.12;100520.66;4956247;28;20094;-75
2023/08/14 08:52:33;;;;;;;7.07;2.22;;;;;;;21.94;79.51;100512.34;4956008;28;20074;-81
2023/08/14 08:55:37;;;;;;;12.20;2.65;;;;;;;22.00;79.15;100523.22;4955721;29;20098;-81
2023/08/14 08:58:44;;;;;;;8.35;2.10;;;;;;;22.04;78.33;100508.59;4955641;28;20074;-79
2023/08/14 09:01:48;;;;;;;7.55;2.20;;;;;;;22.06;77.65;100514.63;4955797;28;20181;-77
2023/08/14 09:04:51;;;;;;;4.72;1.88;;;;;;;22.12;78.61;100523.00;4955688;28;20046;-79
2023/08/14 09:07:56;;;;;;;6.70;2.03;;;;;;;22.14;78.71;100518.31;4956026;28;20194;-80
2023/08/14 09:11:16;;;;;;;4.40;2.10;;;;;;;22.16;79.45;100511.06;4955894;28;20069;-87
2023/08/14 09:14:22;;;;;;;6.72;2.35;;;;;;;22.18;78.21;100514.41;4955172;28;20178;-80
2023/08/14 09:17:27;;;;;;;6.22;2.17;;;;;;;22.23;80.24;100512.94;4943502;28;20065;-82
2023/08/14 09:20:35;;;;;;;6.60;2.75;;;;;;;22.28;80.23;100518.63;4954936;28;20534;-82
2023/08/14 09:23:39;;;;;;;5.40;2.30;;;;;;;22.30;78.99;100513.13;4943410;28;20436;-80
2023/08/14 09:26:43;;;;;;;4.38;2.05;;;;;;;22.28;76.52;100523.13;4955390;28;20530;-82
2023/08/14 09:29:47;;;;;;;8.95;2.33;;;;;;;22.25;77.76;100516.28;4955242;28;20119;-82
2023/08/14 09:32:57;;;;;;;6.32;2.08;;;;;;;22.23;77.29;100506.78;4955251;28;20105;-82
2023/08/14 09:36:00;;;;;;;10.20;3.40;;;;;;;22.16;76.92;100516.38;4955217;28;20469;-82
2023/08/14 09:39:05;;;;;;;6.88;2.03;;;;;;;22.11;76.45;100513.31;4955228;28;20125;-81
2023/08/14 09:42:09;;;;;;;5.38;2.10;;;;;;;22.14;77.44;100497.84;4954859;28;20089;-77
2023/08/14 09:45:15;;;;;;;13.93;3.80;;;;;;;22.20;83.81;100507.06;4955020;28;20135;-77
2023/08/14 09:48:46;;;;;;;8.25;3.22;;;;;;;22.15;88.99;100504.03;4954453;28;20194;-77
2023/08/14 09:51:58;;;;;;;13.60;3.83;;;;;;;22.06;92.37;100517.28;4954884;28;20101;-78
2023/08/14 09:55:07;;;;;;;10.75;3.05;;;;;;;21.90;93.07;100511.00;4955166;28;20050;-76
2023/08/14 09:58:11;;;;;;;6.13;2.30;;;;;;;21.75;93.50;100506.19;4955273;28;20046;-76
2023/08/14 10:01:16;;;;;;;10.65;3.50;;;;;;;21.75;95.15;100500.03;4954825;28;20069;-77
2023/08/14 10:04:23;;;;;;;11.38;2.90;;;;;;;21.74;97.38;100506.38;4953321;28;20042;-78
2023/08/14 10:07:27;;;;;;;9.88;3.50;;;;;;;21.67;96.84;100494.66;4953532;28;20484;-78
2023/08/14 10:10:32;;;;;;;9.90;2.88;;;;;;;21.66;96.39;100492.97;4953535;28;20058;-77
2023/08/14 10:13:44;;;;;;;8.25;3.03;;;;;;;21.86;95.74;100481.19;4953009;28;20051;-76
2023/08/14 10:16:51;;;;;;;8.13;3.13;;;;;;;22.05;93.54;100482.84;4954411;28;20102;-73
2023/08/14 10:19:56;;;;;;;8.63;2.90;;;;;;;;;;4954012;28;20062;-72
2023/08/14 10:23:00;;;;;;;7.97;2.55;;;;;;;22.44;86.51;100482.44;4954349;28;20046;-80
2023/08/14 10:26:13;;;;;;;;;;;;;;;22.67;86.29;100480.88;4954568;28;20090;-71
2023/08/14 10:29:16;;;;;;;9.27;2.03;;;;;;;22.85;83.94;100485.31;4954095;28;19938;-75
2023/08/14 10:32:20;;;;;;;7.32;2.38;;;;;;;22.94;83.16;100498.53;4942705;28;20114;-77
2023/08/14 10:35:25;;;;;;;10.52;2.90;;;;;;;23.01;81.52;100500.56;4954093;28;20038;-70
2023/08/14 10:38:45;;;;;;;9.80;3.22;;;;;;;23.09;81.56;100511.22;4954362;28;20113;-70
2023/08/14 10:41:49;;;;;;;8.45;3.05;;;;;;;23.14;81.05;100514.25;4953605;28;20102;-71
2023/08/14 10:44:53;;;;;;;6.15;2.00;;;;;;;23.20;81.80;100526.94;4953632;28;20102;-71
2023/08/14 10:48:10;;;;;;;9.85;2.97;;;;;;;23.27;82.60;100532.47;4930990;28;20409;-72
2023/08/14 10:51:20;;;;;;;7.03;3.35;;;;;;;23.30;82.18;100532.97;4953750;28;20101;-72
2023/08/14 10:54:24;;;;;;;9.90;2.88;;;;;;;23.39;81.05;100534.69;4954151;28;20105;-70
2023/08/14 10:57:28;;;;;;;5.97;2.20;;;;;;;23.47;81.03;100531.19;4953808;28;20519;-76
2023/08/14 11:00:45;;;;;;;4.88;2.22;;;;;;;23.55;78.90;100530.38;4953565;28;20053;-80
2023/08/14 11:04:06;;;;;;;10.15;2.13;;;;;;;23.66;78.72;100516.69;4953865;28;20188;-79
2023/08/14 11:07:11;;;;;;;;;;;;;;;23.70;77.47;100523.41;4954544;28;20050;-81
2023/08/14 11:10:35;;;;;;;10.40;2.55;;;;;;;23.82;76.39;100510.56;4953993;28;19926;-81
2023/08/14 11:13:38;;;;;;;8.85;2.85;;;;;;;23.87;77.04;100514.41;4929918;28;20461;-77
2023/08/14 11:16:47;;;;;;;7.32;3.05;;;;;;;23.99;77.01;100516.72;4941293;28;20058;-78
2023/08/14 11:19:51;;;;;;;10.85;2.83;;;;;;;24.01;76.08;100520.91;4953076;28;20485;-79
2023/08/14 11:22:55;;;;;;;9.10;3.33;;;;;;;24.07;75.59;100525.59;4953648;28;20138;-79
2023/08/14 11:25:59;;;;;;;12.18;3.55;;;;;;;24.11;75.56;100526.06;4952634;28;20517;-75
2023/08/14 11:29:06;;;;;;;13.30;4.22;;;;;;;24.12;76.06;100535.75;4953120;28;20050;-75
2023/08/14 11:32:10;;;;;;;7.72;2.80;;;;;;;24.13;76.17;100532.09;4953023;28;20050;-76
2023/08/14 11:35:18;;;;;;;6.68;3.20;;;;;;;24.17;77.91;100532.59;4952701;28;20046;-75
2023/08/14 11:38:22;;;;;;;14.98;5.30;;;;;;;24.12;78.65;100535.75;4953712;28;20051;-75
2023/08/14 11:41:25;;;;;;;24.05;8.23;;;;;;;24.10;77.08;100527.09;4933239;29;20049;-74
2023/08/14 11:44:33;;;;;;;15.48;4.47;;;;;;;24.10;79.32;100524.41;4933751;29;20054;-73
2023/08/14 11:47:47;;;;;;;11.35;3.40;;;;;;;24.07;78.95;100519.41;4932777;29;20050;-77
2023/08/14 11:50:51;;;;;;;15.25;4.60;;;;;;;24.04;80.35;100515.22;4933796;29;20050;-76
2023/08/14 11:53:55;;;;;;;12.77;4.63;;;;;;;24.03;80.18;100507.41;4933285;29;20075;-71
2023/08/14 11:57:08;;;;;;;9.80;3.25;;;;;;;24.00;79.42;100515.75;4933425;29;20098;-72
2023/08/14 12:00:13;;;;;;;7.60;3.22;;;;;;;23.99;78.78;100516.72;4933554;29;20126;-74
2023/08/14 12:03:17;;;;;;;12.30;4.15;;;;;;;23.96;78.62;100511.72;4932590;29;20134;-78
2023/08/14 12:06:23;;;;;;;5.75;2.20;;;;;;;23.97;77.95;100510.75;4933671;29;20508;-73
2023/08/14 12:09:28;;;;;;;9.73;3.92;;;;;;;24.02;83.59;100513.72;4942385;28;20146;-73
2023/08/14 12:12:56;;;;;;;11.35;3.50;;;;;;;24.01;82.14;100518.25;4942612;28;20540;-75
2023/08/14 12:16:06;;;;;;;25.85;7.15;;;;;;;24.01;82.18;100493.38;4945648;28;20099;-75
2023/08/14 12:19:12;;;;;;;18.85;5.88;;;;;;;24.00;80.96;100465.00;4943219;28;20130;-73
2023/08/14 12:22:15;;;;;;;18.05;4.95;;;;;;;23.99;79.94;100463.31;4932675;28;20051;-73
2023/08/14 12:25:21;;;;;;;14.15;5.32;;;;;;;24.01;82.13;100472.00;4938906;28;20158;-78
2023/08/14 12:28:25;;;;;;;9.43;3.53;;;;;;;24.06;82.24;100453.66;4937084;29;20062;-71
2023/08/14 12:31:28;;;;;;;8.88;3.42;;;;;;;24.05;79.11;100446.63;4936807;29;20042;-76
2023/08/14 12:34:31;;;;;;;8.63;3.40;;;;;;;24.13;80.38;100450.13;4937112;29;20143;-75
2023/08/14 12:37:35;;;;;;;7.55;3.22;;;;;;;24.28;80.78;100447.59;4936907;29;20051;-80
2023/08/14 12:40:38;;;;;;;6.57;2.92;;;;;;;24.32;76.89;100432.88;4937345;29;20047;-76
2023/08/14 12:43:42;;;;;;;8.75;4.00;;;;;;;24.40;75.42;100449.88;4936858;29;20079;-78
2023/08/14 12:46:47;;;;;;;6.90;2.50;;;;;;;24.40;76.83;100449.88;4936798;29;20074;-77
2023/08/14 12:49:51;;;;;;;6.05;2.65;;;;;;;24.40;77.05;100437.34;4936565;29;20086;-78
2023/08/14 12:52:54;;;;;;;6.93;2.65;;;;;;;24.32;75.66;100438.22;4936489;29;20524;-77
2023/08/14 12:55:57;;;;;;;5.78;2.47;;;;;;;24.32;77.93;100443.56;4936655;29;20413;-75
2023/08/14 12:59:32;;;;;;;4.05;2.00;;;;;;;24.36;77.66;100428.00;4936907;29;20058;-85
2023/08/14 13:03:26;;;;;;;7.65;2.97;;;;;;;24.34;78.01;100425.50;4937107;29;20421;-82
2023/08/14 13:06:30;;;;;;;4.75;2.42;;;;;;;24.27;74.13;100434.38;4930318;29;20091;-79
2023/08/14 13:09:33;;;;;;;6.00;2.58;;;;;;;24.36;76.03;100420.81;4936625;29;20047;-80
2023/08/14 13:12:38;;;;;;;6.30;2.42;;;;;;;24.44;75.66;100429.84;4936387;29;20087;-80
2023/08/14 13:15:43;;;;;;;4.03;2.13;;;;;;;24.55;73.40;100418.78;4935285;29;20050;-73
2023/08/14 13:18:57;;;;;;;;;;;;;;;24.65;72.48;100403.38;4937197;29;20046;-82
2023/08/14 13:22:20;;;;;;;4.25;2.13;;;;;;;24.95;71.38;100396.34;4936705;29;19987;-86
2023/08/14 13:26:01;;;;;;;5.10;2.10;;;;;;;25.22;71.87;100388.84;4935659;29;20111;-79
2023/08/14 13:58:15;;;;;;;4.88;2.40;;;;;;;24.99;70.61;100362.88;4816486;29;20094;-83
2023/08/14 14:01:20;;;;;;;6.50;2.42;;;;;;;24.92;70.80;100359.28;4839947;29;20131;-83
2023/08/14 14:04:31;;;;;;;3.85;1.85;;;;;;;24.84;72.14;100364.66;4857528;29;20147;-83
2023/08/14 14:07:35;;;;;;;7.50;2.35;;;;;;;24.71;74.30;100362.56;4898350;29;20479;-82
2023/08/14 14:10:42;;;;;;;5.82;2.42;;;;;;;24.65;73.76;100368.59;4897903;29;20044;-82
2023/08/14 14:13:50;;;;;;;5.55;2.10;;;;;;;24.57;74.25;100379.38;4900654;29;20107;-81
2023/08/14 14:16:58;;;;;;;4.53;2.33;;;;;;;24.53;73.91;100386.03;4904713;29;20430;-83
2023/08/14 14:20:02;;;;;;;7.53;2.80;;;;;;;24.46;76.54;100393.94;4917057;29;20090;-83
2023/08/14 14:23:06;;;;;;;4.55;2.28;;;;;;;24.46;76.75;100409.97;4916405;29;20083;-83
2023/08/14 14:26:10;;;;;;;5.57;2.00;;;;;;;24.44;78.48;100408.47;4916447;29;20047;-83
2023/08/14 14:29:14;;;;;;;4.85;1.73;;;;;;;24.41;74.97;100403.44;4916097;29;20055;-80
2023/08/14 14:32:17;;;;;;;6.90;2.33;;;;;;;24.47;75.59;100402.78;4916556;29;20055;-81
2023/08/14 14:35:21;;;;;;;6.65;3.00;;;;;;;25.01;77.00;100394.78;4915856;29;20137;-82
2023/08/14 14:38:25;;;;;;;9.82;3.13;;;;;;;27.42;67.95;100396.16;4953869;28;20246;-82
2023/08/14 14:41:29;;;;;;;8.93;2.58;;;;;;;30.65;53.51;100382.00;4927685;29;20066;-82
2023/08/14 14:44:32;;;;;;;6.55;1.95;;;;;;;31.86;46.21;100367.41;4934538;29;20071;-81
2023/08/14 14:47:36;;;;;;;7.57;2.05;;;;;;;30.62;46.73;100371.63;4943129;28;20404;-84
2023/08/14 14:50:40;;;;;;;4.93;1.98;;;;;;;30.10;48.77;100374.31;4942625;29;20062;-82
2023/08/14 14:53:45;;;;;;;6.05;2.13;;;;;;;29.44;50.47;100379.75;4953889;28;20058;-82